sensor_id;sensor_type;location;lat;lon;timestamp;P1;durP1;ratioP1;P2;durP2;ratioP2
64885;SDS011;51514;52.206;5.114;2023-08-31T00:01:48;2.13;;;0.90;;
64885;SDS011;51514;52.206;5.114;2023-08-31T00:04:14;1.70;;;1.05;;
64885;SDS011;51514;52.206;5.114;2023-08-31T00:06:42;1.95;;;1.00;;
64885;SDS011;51514;52.206;5.114;2023-08-31T00:09:10;1.35;;;0.88;;
64885;SDS011;51514;52.206;5.114;2023-08-31T00:11:36;1.85;;;0.90;;
64885;SDS011;51514;52.206;5.114;2023-08-31T00:14:02;0.88;;;0.75;;
64885;SDS011;51514;52.206;5.114;2023-08-31T00:16:27;1.52;;;0.93;;
64885;SDS011;51514;52.206;5.114;2023-08-31T00:18:53;2.10;;;0.90;;
64885;SDS011;51514;52.206;5.114;2023-08-31T00:21:25;0.90;;;0.70;;
64885;SDS011;51514;52.206;5.114;2023-08-31T00:23:50;0.82;;;0.77;;
64885;SDS011;51514;52.206;5.114;2023-08-31T00:26:16;2.08;;;0.70;;
64885;SDS011;51514;52.206;5.114;2023-08-31T00:28:45;1.67;;;0.80;;
64885;SDS011;51514;52.206;5.114;2023-08-31T00:31:10;1.15;;;0.63;;
64885;SDS011;51514;52.206;5.114;2023-08-31T00:33:37;0.68;;;0.55;;
64885;SDS011;51514;52.206;5.114;2023-08-31T00:36:03;1.55;;;0.88;;
64885;SDS011;51514;52.206;5.114;2023-08-31T00:38:30;1.48;;;0.80;;
64885;SDS011;51514;52.206;5.114;2023-08-31T00:40:55;1.35;;;1.00;;
64885;SDS011;51514;52.206;5.114;2023-08-31T00:43:21;0.90;;;0.70;;
64885;SDS011;51514;52.206;5.114;2023-08-31T00:45:51;0.98;;;0.70;;
64885;SDS011;51514;52.206;5.114;2023-08-31T00:48:22;1.30;;;0.77;;
64885;SDS011;51514;52.206;5.114;2023-08-31T00:50:47;1.23;;;0.70;;
64885;SDS011;51514;52.206;5.114;2023-08-31T00:53:13;1.40;;;0.65;;
64885;SDS011;51514;52.206;5.114;2023-08-31T00:55:40;0.73;;;0.73;;
64885;SDS011;51514;52.206;5.114;2023-08-31T00:58:06;1.40;;;0.70;;
64885;SDS011;51514;52.206;5.114;2023-08-31T01:06:16;1.20;;;0.85;;
64885;SDS011;51514;52.206;5.114;2023-08-31T01:09:20;1.67;;;0.75;;
64885;SDS011;51514;52.206;5.114;2023-08-31T01:14:38;0.60;;;0.60;;
64885;SDS011;51514;52.206;5.114;2023-08-31T01:17:07;1.52;;;0.75;;
64885;SDS011;51514;52.206;5.114;2023-08-31T01:22:05;1.40;;;0.90;;
64885;SDS011;51514;52.206;5.114;2023-08-31T01:24:34;1.83;;;0.80;;
64885;SDS011;51514;52.206;5.114;2023-08-31T01:27:00;1.05;;;0.73;;
64885;SDS011;51514;52.206;5.114;2023-08-31T01:29:25;1.55;;;0.98;;
64885;SDS011;51514;52.206;5.114;2023-08-31T01:31:51;1.63;;;1.05;;
64885;SDS011;51514;52.206;5.114;2023-08-31T01:34:17;1.08;;;0.73;;
64885;SDS011;51514;52.206;5.114;2023-08-31T01:36:44;0.93;;;0.70;;
64885;SDS011;51514;52.206;5.114;2023-08-31T01:39:15;0.57;;;0.50;;
64885;SDS011;51514;52.206;5.114;2023-08-31T01:41:48;0.82;;;0.60;;
64885;SDS011;51514;52.206;5.114;2023-08-31T01:44:20;1.65;;;1.05;;
64885;SDS011;51514;52.206;5.114;2023-08-31T01:46:46;1.50;;;0.70;;
64885;SDS011;51514;52.206;5.114;2023-08-31T01:49:16;0.90;;;0.70;;
64885;SDS011;51514;52.206;5.114;2023-08-31T01:51:41;0.88;;;0.88;;
64885;SDS011;51514;52.206;5.114;2023-08-31T01:54:07;1.42;;;0.80;;
64885;SDS011;51514;52.206;5.114;2023-08-31T01:56:32;1.38;;;0.90;;
64885;SDS011;51514;52.206;5.114;2023-08-31T01:58:57;1.40;;;0.77;;
64885;SDS011;51514;52.206;5.114;2023-08-31T02:01:23;1.17;;;0.80;;
64885;SDS011;51514;52.206;5.114;2023-08-31T02:03:48;2.30;;;0.77;;
64885;SDS011;51514;52.206;5.114;2023-08-31T02:06:13;1.55;;;1.02;;
64885;SDS011;51514;52.206;5.114;2023-08-31T02:08:39;0.77;;;0.60;;
64885;SDS011;51514;52.206;5.114;2023-08-31T02:11:04;1.15;;;0.80;;
64885;SDS011;51514;52.206;5.114;2023-08-31T02:13:30;1.05;;;0.70;;
64885;SDS011;51514;52.206;5.114;2023-08-31T02:15:55;1.63;;;0.85;;
64885;SDS011;51514;52.206;5.114;2023-08-31T02:18:21;0.82;;;0.70;;
64885;SDS011;51514;52.206;5.114;2023-08-31T02:20:46;1.45;;;0.95;;
64885;SDS011;51514;52.206;5.114;2023-08-31T02:23:12;1.08;;;0.70;;
64885;SDS011;51514;52.206;5.114;2023-08-31T02:25:37;1.48;;;0.88;;
64885;SDS011;51514;52.206;5.114;2023-08-31T02:28:03;2.13;;;1.13;;
64885;SDS011;51514;52.206;5.114;2023-08-31T02:30:28;1.20;;;0.90;;
64885;SDS011;51514;52.206;5.114;2023-08-31T02:32:54;1.10;;;0.80;;
64885;SDS011;51514;52.206;5.114;2023-08-31T02:35:19;2.33;;;1.02;;
64885;SDS011;51514;52.206;5.114;2023-08-31T02:37:45;1.60;;;0.80;;
64885;SDS011;51514;52.206;5.114;2023-08-31T02:40:10;0.90;;;0.57;;
64885;SDS011;51514;52.206;5.114;2023-08-31T02:42:36;0.90;;;0.80;;
64885;SDS011;51514;52.206;5.114;2023-08-31T02:45:02;0.65;;;0.50;;
64885;SDS011;51514;52.206;5.114;2023-08-31T02:47:27;1.05;;;0.80;;
64885;SDS011;51514;52.206;5.114;2023-08-31T02:49:53;1.13;;;0.73;;
64885;SDS011;51514;52.206;5.114;2023-08-31T02:52:18;1.83;;;0.85;;
64885;SDS011;51514;52.206;5.114;2023-08-31T02:54:43;0.93;;;0.63;;
64885;SDS011;51514;52.206;5.114;2023-08-31T02:57:09;0.50;;;0.47;;
64885;SDS011;51514;52.206;5.114;2023-08-31T02:59:34;1.48;;;0.75;;
64885;SDS011;51514;52.206;5.114;2023-08-31T03:02:02;0.43;;;0.43;;
64885;SDS011;51514;52.206;5.114;2023-08-31T03:04:28;1.98;;;1.05;;
64885;SDS011;51514;52.206;5.114;2023-08-31T03:06:54;1.67;;;0.80;;
64885;SDS011;51514;52.206;5.114;2023-08-31T03:09:19;1.67;;;0.88;;
64885;SDS011;51514;52.206;5.114;2023-08-31T03:11:47;1.50;;;0.88;;
64885;SDS011;51514;52.206;5.114;2023-08-31T03:14:12;0.95;;;0.70;;
64885;SDS011;51514;52.206;5.114;2023-08-31T03:16:38;0.82;;;0.70;;
64885;SDS011;51514;52.206;5.114;2023-08-31T03:19:03;1.08;;;0.60;;
64885;SDS011;51514;52.206;5.114;2023-08-31T03:21:29;3.67;;;0.93;;
64885;SDS011;51514;52.206;5.114;2023-08-31T03:23:54;1.00;;;0.70;;
64885;SDS011;51514;52.206;5.114;2023-08-31T03:26:20;1.50;;;1.00;;
64885;SDS011;51514;52.206;5.114;2023-08-31T03:28:45;1.10;;;0.80;;
64885;SDS011;51514;52.206;5.114;2023-08-31T03:31:10;1.33;;;0.68;;
64885;SDS011;51514;52.206;5.114;2023-08-31T03:33:36;2.03;;;0.82;;
64885;SDS011;51514;52.206;5.114;2023-08-31T03:36:02;1.05;;;0.70;;
64885;SDS011;51514;52.206;5.114;2023-08-31T03:38:29;1.38;;;0.73;;
64885;SDS011;51514;52.206;5.114;2023-08-31T03:40:55;0.55;;;0.55;;
64885;SDS011;51514;52.206;5.114;2023-08-31T03:43:21;1.52;;;0.85;;
64885;SDS011;51514;52.206;5.114;2023-08-31T03:45:46;0.68;;;0.50;;
64885;SDS011;51514;52.206;5.114;2023-08-31T03:48:12;1.67;;;0.75;;
64885;SDS011;51514;52.206;5.114;2023-08-31T03:50:37;1.27;;;0.95;;
64885;SDS011;51514;52.206;5.114;2023-08-31T03:53:02;0.55;;;0.55;;
64885;SDS011;51514;52.206;5.114;2023-08-31T03:55:28;1.48;;;0.77;;
64885;SDS011;51514;52.206;5.114;2023-08-31T03:57:53;1.05;;;0.70;;
64885;SDS011;51514;52.206;5.114;2023-08-31T04:00:19;0.75;;;0.75;;
64885;SDS011;51514;52.206;5.114;2023-08-31T04:02:44;1.33;;;0.50;;
64885;SDS011;51514;52.206;5.114;2023-08-31T04:05:10;1.10;;;0.50;;
64885;SDS011;51514;52.206;5.114;2023-08-31T04:07:35;1.33;;;0.80;;
64885;SDS011;51514;52.206;5.114;2023-08-31T04:10:01;0.50;;;0.50;;
64885;SDS011;51514;52.206;5.114;2023-08-31T04:12:26;1.17;;;0.80;;
64885;SDS011;51514;52.206;5.114;2023-08-31T04:14:52;0.77;;;0.65;;
64885;SDS011;51514;52.206;5.114;2023-08-31T04:17:17;1.52;;;0.63;;
64885;SDS011;51514;52.206;5.114;2023-08-31T04:19:42;2.10;;;0.98;;
64885;SDS011;51514;52.206;5.114;2023-08-31T04:22:08;2.00;;;0.77;;
64885;SDS011;51514;52.206;5.114;2023-08-31T04:24:33;2.22;;;0.98;;
64885;SDS011;51514;52.206;5.114;2023-08-31T04:26:58;2.85;;;0.80;;
64885;SDS011;51514;52.206;5.114;2023-08-31T04:29:24;1.02;;;0.47;;
64885;SDS011;51514;52.206;5.114;2023-08-31T04:31:49;0.85;;;0.70;;
64885;SDS011;51514;52.206;5.114;2023-08-31T04:34:15;1.48;;;0.80;;
64885;SDS011;51514;52.206;5.114;2023-08-31T04:36:41;1.02;;;0.70;;
64885;SDS011;51514;52.206;5.114;2023-08-31T04:39:09;1.30;;;0.80;;
64885;SDS011;51514;52.206;5.114;2023-08-31T04:41:34;0.60;;;0.60;;
64885;SDS011;51514;52.206;5.114;2023-08-31T04:44:00;2.03;;;0.60;;
64885;SDS011;51514;52.206;5.114;2023-08-31T04:46:25;1.30;;;0.90;;
64885;SDS011;51514;52.206;5.114;2023-08-31T04:48:50;2.05;;;0.73;;
64885;SDS011;51514;52.206;5.114;2023-08-31T04:51:33;0.93;;;0.75;;
64885;SDS011;51514;52.206;5.114;2023-08-31T04:53:59;3.28;;;1.05;;
64885;SDS011;51514;52.206;5.114;2023-08-31T04:56:29;1.10;;;0.60;;
64885;SDS011;51514;52.206;5.114;2023-08-31T04:58:56;2.42;;;0.77;;
64885;SDS011;51514;52.206;5.114;2023-08-31T05:01:21;1.25;;;0.60;;
64885;SDS011;51514;52.206;5.114;2023-08-31T05:03:46;2.05;;;0.80;;
64885;SDS011;51514;52.206;5.114;2023-08-31T05:06:12;1.10;;;0.80;;
64885;SDS011;51514;52.206;5.114;2023-08-31T05:08:37;0.60;;;0.60;;
64885;SDS011;51514;52.206;5.114;2023-08-31T05:11:03;1.50;;;0.77;;
64885;SDS011;51514;52.206;5.114;2023-08-31T05:13:28;1.42;;;0.73;;
64885;SDS011;51514;52.206;5.114;2023-08-31T05:15:54;1.30;;;0.88;;
64885;SDS011;51514;52.206;5.114;2023-08-31T05:18:19;0.55;;;0.55;;
64885;SDS011;51514;52.206;5.114;2023-08-31T05:20:45;0.95;;;0.63;;
64885;SDS011;51514;52.206;5.114;2023-08-31T05:23:11;1.25;;;0.77;;
64885;SDS011;51514;52.206;5.114;2023-08-31T05:25:41;1.80;;;0.57;;
64885;SDS011;51514;52.206;5.114;2023-08-31T05:28:07;0.85;;;0.55;;
64885;SDS011;51514;52.206;5.114;2023-08-31T05:30:32;0.90;;;0.60;;
64885;SDS011;51514;52.206;5.114;2023-08-31T05:32:59;1.48;;;0.85;;
64885;SDS011;51514;52.206;5.114;2023-08-31T05:35:25;0.63;;;0.63;;
64885;SDS011;51514;52.206;5.114;2023-08-31T05:37:50;0.95;;;0.70;;
64885;SDS011;51514;52.206;5.114;2023-08-31T05:40:15;1.70;;;0.70;;
64885;SDS011;51514;52.206;5.114;2023-08-31T05:42:42;1.58;;;0.65;;
64885;SDS011;51514;52.206;5.114;2023-08-31T05:45:07;1.25;;;0.70;;
64885;SDS011;51514;52.206;5.114;2023-08-31T05:47:33;1.35;;;0.63;;
64885;SDS011;51514;52.206;5.114;2023-08-31T05:50:00;1.48;;;1.02;;
64885;SDS011;51514;52.206;5.114;2023-08-31T05:52:26;0.77;;;0.70;;
64885;SDS011;51514;52.206;5.114;2023-08-31T05:54:52;0.80;;;0.77;;
64885;SDS011;51514;52.206;5.114;2023-08-31T05:57:20;0.73;;;0.68;;
64885;SDS011;51514;52.206;5.114;2023-08-31T05:59:47;1.50;;;0.82;;
64885;SDS011;51514;52.206;5.114;2023-08-31T06:02:13;0.77;;;0.60;;
64885;SDS011;51514;52.206;5.114;2023-08-31T06:04:38;0.60;;;0.60;;
64885;SDS011;51514;52.206;5.114;2023-08-31T06:07:03;1.10;;;0.70;;
64885;SDS011;51514;52.206;5.114;2023-08-31T06:09:29;1.25;;;0.73;;
64885;SDS011;51514;52.206;5.114;2023-08-31T06:11:54;1.60;;;0.80;;
64885;SDS011;51514;52.206;5.114;2023-08-31T06:14:20;1.10;;;0.73;;
64885;SDS011;51514;52.206;5.114;2023-08-31T06:16:45;1.98;;;0.90;;
64885;SDS011;51514;52.206;5.114;2023-08-31T06:19:10;0.93;;;0.55;;
64885;SDS011;51514;52.206;5.114;2023-08-31T06:21:36;1.40;;;0.77;;
64885;SDS011;51514;52.206;5.114;2023-08-31T06:24:01;1.13;;;0.70;;
64885;SDS011;51514;52.206;5.114;2023-08-31T06:26:28;1.65;;;0.90;;
64885;SDS011;51514;52.206;5.114;2023-08-31T06:28:54;0.90;;;0.80;;
64885;SDS011;51514;52.206;5.114;2023-08-31T06:31:19;1.00;;;0.60;;
64885;SDS011;51514;52.206;5.114;2023-08-31T06:33:44;1.20;;;0.68;;
64885;SDS011;51514;52.206;5.114;2023-08-31T06:36:10;1.45;;;0.73;;
64885;SDS011;51514;52.206;5.114;2023-08-31T06:38:35;1.02;;;0.70;;
64885;SDS011;51514;52.206;5.114;2023-08-31T06:41:01;1.58;;;0.70;;
64885;SDS011;51514;52.206;5.114;2023-08-31T06:43:27;1.30;;;0.70;;
64885;SDS011;51514;52.206;5.114;2023-08-31T06:45:53;1.60;;;0.90;;
64885;SDS011;51514;52.206;5.114;2023-08-31T06:48:18;1.45;;;0.65;;
64885;SDS011;51514;52.206;5.114;2023-08-31T06:50:44;1.33;;;0.68;;
64885;SDS011;51514;52.206;5.114;2023-08-31T06:53:09;0.98;;;0.60;;
64885;SDS011;51514;52.206;5.114;2023-08-31T06:55:35;0.68;;;0.50;;
64885;SDS011;51514;52.206;5.114;2023-08-31T06:58:01;2.17;;;0.52;;
64885;SDS011;51514;52.206;5.114;2023-08-31T07:00:29;1.08;;;0.70;;
64885;SDS011;51514;52.206;5.114;2023-08-31T07:02:54;1.27;;;0.80;;
64885;SDS011;51514;52.206;5.114;2023-08-31T07:05:24;4.10;;;0.80;;
64885;SDS011;51514;52.206;5.114;2023-08-31T07:07:51;1.65;;;0.85;;
64885;SDS011;51514;52.206;5.114;2023-08-31T07:10:19;2.72;;;1.13;;
64885;SDS011;51514;52.206;5.114;2023-08-31T07:12:45;2.25;;;0.82;;
64885;SDS011;51514;52.206;5.114;2023-08-31T07:15:11;1.48;;;0.88;;
64885;SDS011;51514;52.206;5.114;2023-08-31T07:17:36;5.80;;;1.25;;
64885;SDS011;51514;52.206;5.114;2023-08-31T07:20:01;1.75;;;1.08;;
64885;SDS011;51514;52.206;5.114;2023-08-31T07:22:30;1.98;;;0.98;;
64885;SDS011;51514;52.206;5.114;2023-08-31T07:24:57;1.75;;;0.73;;
64885;SDS011;51514;52.206;5.114;2023-08-31T07:27:22;3.60;;;0.95;;
64885;SDS011;51514;52.206;5.114;2023-08-31T07:29:48;2.17;;;0.80;;
64885;SDS011;51514;52.206;5.114;2023-08-31T07:32:13;3.10;;;0.93;;
64885;SDS011;51514;52.206;5.114;2023-08-31T07:34:38;2.45;;;0.80;;
64885;SDS011;51514;52.206;5.114;2023-08-31T07:37:04;4.07;;;0.85;;
64885;SDS011;51514;52.206;5.114;2023-08-31T07:39:29;1.90;;;1.13;;
64885;SDS011;51514;52.206;5.114;2023-08-31T07:41:54;2.95;;;1.13;;
64885;SDS011;51514;52.206;5.114;2023-08-31T07:44:20;6.47;;;1.48;;
64885;SDS011;51514;52.206;5.114;2023-08-31T07:46:46;2.80;;;0.88;;
64885;SDS011;51514;52.206;5.114;2023-08-31T07:49:11;1.38;;;0.85;;
64885;SDS011;51514;52.206;5.114;2023-08-31T07:51:37;2.90;;;1.10;;
64885;SDS011;51514;52.206;5.114;2023-08-31T07:54:02;2.50;;;0.80;;
64885;SDS011;51514;52.206;5.114;2023-08-31T07:56:30;7.60;;;1.25;;
64885;SDS011;51514;52.206;5.114;2023-08-31T07:58:56;2.53;;;0.70;;
64885;SDS011;51514;52.206;5.114;2023-08-31T08:01:21;1.35;;;0.60;;
64885;SDS011;51514;52.206;5.114;2023-08-31T08:03:46;4.97;;;1.42;;
64885;SDS011;51514;52.206;5.114;2023-08-31T08:06:12;1.85;;;0.90;;
64885;SDS011;51514;52.206;5.114;2023-08-31T08:08:37;1.92;;;1.00;;
64885;SDS011;51514;52.206;5.114;2023-08-31T08:11:04;1.48;;;0.88;;
64885;SDS011;51514;52.206;5.114;2023-08-31T08:13:29;2.28;;;1.00;;
64885;SDS011;51514;52.206;5.114;2023-08-31T08:15:55;1.98;;;1.02;;
64885;SDS011;51514;52.206;5.114;2023-08-31T08:18:20;7.57;;;0.90;;
64885;SDS011;51514;52.206;5.114;2023-08-31T08:20:52;1.65;;;1.00;;
64885;SDS011;51514;52.206;5.114;2023-08-31T08:23:18;1.45;;;0.80;;
64885;SDS011;51514;52.206;5.114;2023-08-31T08:25:43;2.75;;;1.10;;
64885;SDS011;51514;52.206;5.114;2023-08-31T08:28:09;2.55;;;1.20;;
64885;SDS011;51514;52.206;5.114;2023-08-31T08:30:34;3.03;;;1.50;;
64885;SDS011;51514;52.206;5.114;2023-08-31T08:32:59;2.75;;;1.00;;
64885;SDS011;51514;52.206;5.114;2023-08-31T08:35:25;2.55;;;0.95;;
64885;SDS011;51514;52.206;5.114;2023-08-31T08:37:50;1.00;;;0.90;;
64885;SDS011;51514;52.206;5.114;2023-08-31T08:40:16;1.90;;;0.88;;
64885;SDS011;51514;52.206;5.114;2023-08-31T08:42:42;2.25;;;0.73;;
64885;SDS011;51514;52.206;5.114;2023-08-31T08:45:12;1.77;;;0.85;;
64885;SDS011;51514;52.206;5.114;2023-08-31T08:47:40;5.38;;;1.10;;
64885;SDS011;51514;52.206;5.114;2023-08-31T08:50:07;1.90;;;1.00;;
64885;SDS011;51514;52.206;5.114;2023-08-31T08:52:33;1.50;;;0.68;;
64885;SDS011;51514;52.206;5.114;2023-08-31T08:54:58;3.47;;;1.17;;
64885;SDS011;51514;52.206;5.114;2023-08-31T08:57:26;2.80;;;1.00;;
64885;SDS011;51514;52.206;5.114;2023-08-31T08:59:51;2.25;;;1.42;;
64885;SDS011;51514;52.206;5.114;2023-08-31T09:02:17;1.33;;;0.82;;
64885;SDS011;51514;52.206;5.114;2023-08-31T09:04:42;2.08;;;0.73;;
64885;SDS011;51514;52.206;5.114;2023-08-31T09:07:08;2.15;;;1.00;;
64885;SDS011;51514;52.206;5.114;2023-08-31T09:09:38;2.72;;;1.17;;
64885;SDS011;51514;52.206;5.114;2023-08-31T09:12:14;2.05;;;0.95;;
64885;SDS011;51514;52.206;5.114;2023-08-31T09:14:39;2.33;;;0.93;;
64885;SDS011;51514;52.206;5.114;2023-08-31T09:17:04;1.02;;;0.60;;
64885;SDS011;51514;52.206;5.114;2023-08-31T09:19:31;3.60;;;0.80;;
64885;SDS011;51514;52.206;5.114;2023-08-31T09:21:56;2.45;;;0.85;;
64885;SDS011;51514;52.206;5.114;2023-08-31T09:24:22;2.00;;;1.02;;
64885;SDS011;51514;52.206;5.114;2023-08-31T09:26:50;3.72;;;1.23;;
64885;SDS011;51514;52.206;5.114;2023-08-31T09:29:18;1.85;;;1.02;;
64885;SDS011;51514;52.206;5.114;2023-08-31T09:31:44;1.30;;;0.80;;
64885;SDS011;51514;52.206;5.114;2023-08-31T09:34:10;1.13;;;0.77;;
64885;SDS011;51514;52.206;5.114;2023-08-31T09:36:36;2.05;;;0.80;;
64885;SDS011;51514;52.206;5.114;2023-08-31T09:39:02;1.83;;;1.17;;
64885;SDS011;51514;52.206;5.114;2023-08-31T09:41:29;0.95;;;0.75;;
64885;SDS011;51514;52.206;5.114;2023-08-31T09:43:55;3.10;;;0.82;;
64885;SDS011;51514;52.206;5.114;2023-08-31T09:46:20;1.52;;;0.80;;
64885;SDS011;51514;52.206;5.114;2023-08-31T09:48:46;2.33;;;0.88;;
64885;SDS011;51514;52.206;5.114;2023-08-31T09:51:13;2.05;;;1.10;;
64885;SDS011;51514;52.206;5.114;2023-08-31T09:56:08;1.10;;;0.57;;
64885;SDS011;51514;52.206;5.114;2023-08-31T09:58:38;1.20;;;0.80;;
64885;SDS011;51514;52.206;5.114;2023-08-31T10:01:04;1.25;;;0.80;;
64885;SDS011;51514;52.206;5.114;2023-08-31T10:03:30;1.60;;;0.90;;
64885;SDS011;51514;52.206;5.114;2023-08-31T10:05:56;2.25;;;0.90;;
64885;SDS011;51514;52.206;5.114;2023-08-31T10:08:23;2.42;;;0.77;;
64885;SDS011;51514;52.206;5.114;2023-08-31T10:10:51;1.35;;;0.70;;
64885;SDS011;51514;52.206;5.114;2023-08-31T10:13:18;1.45;;;0.60;;
64885;SDS011;51514;52.206;5.114;2023-08-31T10:15:46;3.83;;;1.83;;
64885;SDS011;51514;52.206;5.114;2023-08-31T10:18:13;3.45;;;1.08;;
64885;SDS011;51514;52.206;5.114;2023-08-31T10:20:41;2.17;;;0.73;;
64885;SDS011;51514;52.206;5.114;2023-08-31T10:23:09;7.65;;;1.73;;
64885;SDS011;51514;52.206;5.114;2023-08-31T10:28:18;3.10;;;1.00;;
64885;SDS011;51514;52.206;5.114;2023-08-31T10:31:04;5.25;;;1.02;;
64885;SDS011;51514;52.206;5.114;2023-08-31T10:33:33;2.17;;;0.77;;
64885;SDS011;51514;52.206;5.114;2023-08-31T10:36:00;1.33;;;0.63;;
64885;SDS011;51514;52.206;5.114;2023-08-31T10:38:26;2.38;;;0.75;;
64885;SDS011;51514;52.206;5.114;2023-08-31T10:41:02;4.97;;;1.10;;
64885;SDS011;51514;52.206;5.114;2023-08-31T10:43:42;1.10;;;0.90;;
64885;SDS011;51514;52.206;5.114;2023-08-31T10:46:33;2.28;;;0.77;;
64885;SDS011;51514;52.206;5.114;2023-08-31T10:51:34;1.77;;;0.75;;
64885;SDS011;51514;52.206;5.114;2023-08-31T11:02:26;2.97;;;1.02;;
64885;SDS011;51514;52.206;5.114;2023-08-31T11:04:54;1.33;;;0.77;;
64885;SDS011;51514;52.206;5.114;2023-08-31T11:07:24;2.50;;;0.93;;
64885;SDS011;51514;52.206;5.114;2023-08-31T11:09:51;2.47;;;1.30;;
64885;SDS011;51514;52.206;5.114;2023-08-31T11:12:16;3.55;;;1.05;;
64885;SDS011;51514;52.206;5.114;2023-08-31T11:14:42;3.15;;;1.05;;
64885;SDS011;51514;52.206;5.114;2023-08-31T11:17:07;3.38;;;1.00;;
64885;SDS011;51514;52.206;5.114;2023-08-31T11:19:34;2.10;;;0.98;;
64885;SDS011;51514;52.206;5.114;2023-08-31T11:22:00;1.73;;;1.00;;
64885;SDS011;51514;52.206;5.114;2023-08-31T11:24:29;2.03;;;1.05;;
64885;SDS011;51514;52.206;5.114;2023-08-31T11:26:55;2.00;;;0.90;;
64885;SDS011;51514;52.206;5.114;2023-08-31T11:29:21;2.03;;;0.95;;
64885;SDS011;51514;52.206;5.114;2023-08-31T11:31:46;2.92;;;1.20;;
64885;SDS011;51514;52.206;5.114;2023-08-31T11:34:12;7.40;;;1.35;;
64885;SDS011;51514;52.206;5.114;2023-08-31T11:36:39;3.72;;;1.38;;
64885;SDS011;51514;52.206;5.114;2023-08-31T11:39:05;2.15;;;1.08;;
64885;SDS011;51514;52.206;5.114;2023-08-31T11:41:32;3.28;;;1.05;;
64885;SDS011;51514;52.206;5.114;2023-08-31T11:43:58;1.50;;;0.85;;
64885;SDS011;51514;52.206;5.114;2023-08-31T11:46:24;2.58;;;1.00;;
64885;SDS011;51514;52.206;5.114;2023-08-31T11:48:53;3.70;;;1.20;;
64885;SDS011;51514;52.206;5.114;2023-08-31T11:51:19;2.42;;;1.00;;
64885;SDS011;51514;52.206;5.114;2023-08-31T11:53:45;2.60;;;0.90;;
64885;SDS011;51514;52.206;5.114;2023-08-31T11:56:10;2.60;;;1.10;;
64885;SDS011;51514;52.206;5.114;2023-08-31T11:58:42;2.88;;;1.10;;
64885;SDS011;51514;52.206;5.114;2023-08-31T12:01:08;2.30;;;0.80;;
64885;SDS011;51514;52.206;5.114;2023-08-31T12:03:43;2.15;;;1.08;;
64885;SDS011;51514;52.206;5.114;2023-08-31T12:06:14;0.82;;;0.65;;
64885;SDS011;51514;52.206;5.114;2023-08-31T12:08:40;2.03;;;1.08;;
64885;SDS011;51514;52.206;5.114;2023-08-31T12:11:06;2.45;;;0.95;;
64885;SDS011;51514;52.206;5.114;2023-08-31T12:13:32;2.55;;;1.05;;
64885;SDS011;51514;52.206;5.114;2023-08-31T12:15:57;1.95;;;0.80;;
64885;SDS011;51514;52.206;5.114;2023-08-31T12:18:23;2.50;;;1.08;;
64885;SDS011;51514;52.206;5.114;2023-08-31T12:20:50;2.60;;;1.00;;
64885;SDS011;51514;52.206;5.114;2023-08-31T12:23:16;1.92;;;1.10;;
64885;SDS011;51514;52.206;5.114;2023-08-31T12:25:49;4.88;;;1.40;;
64885;SDS011;51514;52.206;5.114;2023-08-31T12:28:16;3.60;;;1.27;;
64885;SDS011;51514;52.206;5.114;2023-08-31T12:30:45;1.92;;;0.90;;
64885;SDS011;51514;52.206;5.114;2023-08-31T12:33:15;3.30;;;1.23;;
64885;SDS011;51514;52.206;5.114;2023-08-31T12:35:41;4.38;;;1.80;;
64885;SDS011;51514;52.206;5.114;2023-08-31T12:38:07;10.88;;;3.50;;
64885;SDS011;51514;52.206;5.114;2023-08-31T12:40:32;15.95;;;4.90;;
64885;SDS011;51514;52.206;5.114;2023-08-31T12:42:58;23.40;;;6.75;;
64885;SDS011;51514;52.206;5.114;2023-08-31T12:45:23;21.08;;;6.40;;
64885;SDS011;51514;52.206;5.114;2023-08-31T12:47:48;17.00;;;6.97;;
64885;SDS011;51514;52.206;5.114;2023-08-31T12:50:14;16.27;;;6.50;;
64885;SDS011;51514;52.206;5.114;2023-08-31T12:52:39;20.25;;;8.25;;
64885;SDS011;51514;52.206;5.114;2023-08-31T12:55:09;23.20;;;8.05;;
64885;SDS011;51514;52.206;5.114;2023-08-31T12:57:35;23.38;;;7.50;;
64885;SDS011;51514;52.206;5.114;2023-08-31T13:00:01;18.00;;;6.30;;
64885;SDS011;51514;52.206;5.114;2023-08-31T13:04:55;14.47;;;5.90;;
64885;SDS011;51514;52.206;5.114;2023-08-31T13:07:20;18.40;;;6.45;;
64885;SDS011;51514;52.206;5.114;2023-08-31T13:09:45;12.45;;;5.03;;
64885;SDS011;51514;52.206;5.114;2023-08-31T13:12:11;18.15;;;6.53;;
64885;SDS011;51514;52.206;5.114;2023-08-31T13:14:36;14.23;;;5.95;;
64885;SDS011;51514;52.206;5.114;2023-08-31T13:17:02;16.08;;;5.18;;
64885;SDS011;51514;52.206;5.114;2023-08-31T13:19:28;18.83;;;6.53;;
64885;SDS011;51514;52.206;5.114;2023-08-31T13:21:54;12.45;;;5.30;;
64885;SDS011;51514;52.206;5.114;2023-08-31T13:24:19;14.48;;;6.20;;
64885;SDS011;51514;52.206;5.114;2023-08-31T13:26:45;13.40;;;4.63;;
64885;SDS011;51514;52.206;5.114;2023-08-31T13:29:13;11.82;;;5.50;;
64885;SDS011;51514;52.206;5.114;2023-08-31T13:31:39;13.25;;;4.95;;
64885;SDS011;51514;52.206;5.114;2023-08-31T13:34:04;13.20;;;5.63;;
64885;SDS011;51514;52.206;5.114;2023-08-31T13:36:32;14.03;;;4.57;;
64885;SDS011;51514;52.206;5.114;2023-08-31T13:38:58;13.50;;;4.53;;
64885;SDS011;51514;52.206;5.114;2023-08-31T13:41:23;10.02;;;3.90;;
64885;SDS011;51514;52.206;5.114;2023-08-31T13:43:48;11.32;;;4.43;;
64885;SDS011;51514;52.206;5.114;2023-08-31T13:46:14;14.10;;;4.38;;
64885;SDS011;51514;52.206;5.114;2023-08-31T13:48:39;8.40;;;3.83;;
64885;SDS011;51514;52.206;5.114;2023-08-31T13:51:04;10.48;;;4.10;;
64885;SDS011;51514;52.206;5.114;2023-08-31T13:53:31;11.07;;;3.88;;
64885;SDS011;51514;52.206;5.114;2023-08-31T13:55:56;9.80;;;4.20;;
64885;SDS011;51514;52.206;5.114;2023-08-31T13:58:22;9.73;;;3.70;;
64885;SDS011;51514;52.206;5.114;2023-08-31T14:00:47;9.63;;;3.42;;
64885;SDS011;51514;52.206;5.114;2023-08-31T14:03:14;8.65;;;3.58;;
64885;SDS011;51514;52.206;5.114;2023-08-31T14:05:39;8.60;;;3.22;;
64885;SDS011;51514;52.206;5.114;2023-08-31T14:08:04;11.57;;;4.13;;
64885;SDS011;51514;52.206;5.114;2023-08-31T14:10:30;9.20;;;3.40;;
64885;SDS011;51514;52.206;5.114;2023-08-31T14:12:57;13.07;;;3.35;;
64885;SDS011;51514;52.206;5.114;2023-08-31T14:15:23;8.95;;;3.58;;
64885;SDS011;51514;52.206;5.114;2023-08-31T14:17:51;8.93;;;2.53;;
64885;SDS011;51514;52.206;5.114;2023-08-31T14:20:18;10.15;;;3.47;;
64885;SDS011;51514;52.206;5.114;2023-08-31T14:22:43;8.50;;;3.00;;
64885;SDS011;51514;52.206;5.114;2023-08-31T14:25:10;5.38;;;2.70;;
64885;SDS011;51514;52.206;5.114;2023-08-31T14:27:36;9.40;;;3.10;;
64885;SDS011;51514;52.206;5.114;2023-08-31T14:30:01;7.63;;;3.13;;
64885;SDS011;51514;52.206;5.114;2023-08-31T14:32:27;6.25;;;3.70;;
64885;SDS011;51514;52.206;5.114;2023-08-31T14:34:54;8.68;;;3.42;;
64885;SDS011;51514;52.206;5.114;2023-08-31T14:37:20;8.75;;;3.50;;
64885;SDS011;51514;52.206;5.114;2023-08-31T14:39:45;7.05;;;2.60;;
64885;SDS011;51514;52.206;5.114;2023-08-31T14:42:10;6.18;;;2.35;;
64885;SDS011;51514;52.206;5.114;2023-08-31T14:44:36;6.32;;;2.88;;
64885;SDS011;51514;52.206;5.114;2023-08-31T14:47:02;5.75;;;2.75;;
64885;SDS011;51514;52.206;5.114;2023-08-31T14:49:28;8.15;;;2.83;;
64885;SDS011;51514;52.206;5.114;2023-08-31T14:51:53;10.77;;;3.03;;
64885;SDS011;51514;52.206;5.114;2023-08-31T14:54:19;7.80;;;2.25;;
64885;SDS011;51514;52.206;5.114;2023-08-31T14:56:44;10.45;;;2.60;;
64885;SDS011;51514;52.206;5.114;2023-08-31T14:59:10;7.60;;;3.20;;
64885;SDS011;51514;52.206;5.114;2023-08-31T15:01:35;6.35;;;2.58;;
64885;SDS011;51514;52.206;5.114;2023-08-31T15:04:00;11.25;;;2.83;;
64885;SDS011;51514;52.206;5.114;2023-08-31T15:06:26;8.00;;;2.80;;
64885;SDS011;51514;52.206;5.114;2023-08-31T15:08:51;8.70;;;2.85;;
64885;SDS011;51514;52.206;5.114;2023-08-31T15:11:17;9.02;;;2.45;;